• Join FlightAware (Why Join?)
  • Login
  • US Flag 
01:32AM EDT


 

Airport Tracker/Info


-or-


 

Live Flight TrackerFlight Track Log ✈ RPA3228 ✈ 16-Apr-2013 ✈ KDCA - KBTV

Flight Track Log - Related Links

Times and Time Zones

All times are in EDT time to prevent confusion due to time zone crossing. See the RPA3228 flight status page for this flight to view local times or setup timezone preferences in your user account.

Time Position Orientation Groundspeed Altitude Reporting Facility
EDT Latitude Longitude Course Direction KTS MPH feet Rate Location/Type
10:49AM 38.8167 -77.0333 83° East 158 182 2,300  Level Potomac TRACON
10:50AM 38.7500 -77.0333 180° South 234 269 5,300 3,300 Climbing Potomac TRACON
10:51AM 39.0204 -76.5556 67° East  Level FlightAware Approximate
10:52AM 39.0830 -76.3953 61° Northeast  Level FlightAware Approximate
10:52AM 38.7900 -76.8594 74° East 204 235 12,400  Level Washington Center
10:53AM 39.1335 -76.2332 38° Northeast  Level FlightAware Approximate
10:53AM 38.8431 -76.7750 51° Northeast 259 298 15,200  Level Washington Center
10:54AM 39.1652 -76.0650 83° East  Level FlightAware Approximate
10:54AM 38.8917 -76.6772 57° Northeast 301 346 18,000  Level Washington Center
10:55AM 38.9344 -76.5631 64° Northeast 330 380 20,200 2,400 Climbing Washington Center
10:56AM 38.9792 -76.4433 64° Northeast 348 400 22,800 2,340 Climbing Washington Center
10:57AM 39.0278 -76.3211 63° Northeast 370 426 24,900 1,080 Climbing Washington Center
10:58AM 39.0764 -76.1906 64° Northeast 384 442 25,000  Climbing Washington Center
10:59AM 39.1250 -76.0597 64° Northeast 389 448 25,000  Level Washington Center
11:00AM 39.1756 -75.9289 63° Northeast 396 456 25,000 540 Level Washington Center
11:01AM 39.2425 -75.8167 52° Northeast 396 456 26,100 1,500 Climbing Washington Center
11:02AM 39.3258 -75.7150 43° Northeast 402 463 28,000 1,620 Climbing Washington Center
11:03AM 39.4072 -75.6050 46° Northeast 408 470 29,400 1,560 Climbing Washington Center
11:04AM 39.4906 -75.4947 46° Northeast 414 476 31,200 1,740 Climbing Washington Center
11:05AM 39.5717 -75.3897 45° Northeast 414 476 33,000 900 Climbing Washington Center
11:06AM 39.6506 -75.2869 45° Northeast 403 464 33,000  Level Washington Center
11:07AM 39.7253 -75.1842 47° Northeast 398 458 33,000  Level Washington Center
11:08AM 39.7994 -75.0725 49° Northeast 413 475 33,000  Level New York Center
11:09AM 39.8722 -74.9661 48° Northeast 407 468 33,000  Level New York Center
11:10AM 39.9508 -74.8597 46° Northeast 402 463 33,000  Level New York Center
11:11AM 40.0342 -74.7425 47° Northeast 397 457 33,000  Level New York Center
11:12AM 40.1086 -74.6328 48° Northeast 397 457 33,000  Level New York Center
11:13AM 40.1853 -74.5231 48° Northeast 403 464 33,000  Level New York Center
11:14AM 40.2675 -74.4269 42° Northeast 403 464 33,000  Level New York Center
11:15AM 40.3514 -74.3358 40° Northeast 393 452 33,000  Level New York Center
11:16AM 40.4375 -74.2450 39° Northeast 393 452 33,000  Level New York Center
11:17AM 40.5214 -74.1536 40° Northeast 387 445 33,000  Level New York Center
11:18AM 40.6053 -74.0622 40° Northeast 387 445 33,000  Level New York Center
11:20AM 40.7867 -73.8708 39° Northeast 392 451 33,000  Level Boston Center
11:21AM 40.8772 -73.7933 33° Northeast 392 451 33,000  Level Boston Center
11:22AM 40.9772 -73.7900 North 365 420 33,000  Level Boston Center
11:23AM 41.0772 -73.7947 358° North 348 400 33,000  Level Boston Center
11:24AM 41.1753 -73.7886 North 401 461 33,000  Level Boston Center
11:25AM 41.2797 -73.7686 North 393 452 33,000  Level Boston Center
11:26AM 41.3842 -73.7486 North 381 438 33,000  Level Boston Center
11:27AM 41.4844 -73.7314 North 369 425 33,000  Level Boston Center
11:28AM 41.5867 -73.7139 North 369 425 33,000  Level Boston Center
11:29AM 41.6847 -73.6967 North 369 425 33,000  Level Boston Center
11:30AM 41.7850 -73.6789 North 357 411 33,000  Level Boston Center
11:31AM 41.8853 -73.6586 North 357 411 33,000  Level Boston Center
11:32AM 42.0064 -73.6386 North 362 417 33,000  Level Boston Center
11:33AM 42.1131 -73.6128 10° North 368 423 33,000  Level Boston Center
11:34AM 42.2133 -73.5922 North 368 423 33,000  Level Boston Center
11:35AM 42.3156 -73.5717 North 368 423 33,000 -480 Level Boston Center
11:36AM 42.4136 -73.5622 North 368 423 32,100 -1,020 Descending Boston Center
11:37AM 42.5200 -73.5414 North 368 423 31,000 -1,140 Descending Boston Center
11:38AM 42.6328 -73.5181 North 373 429 29,900 -1,200 Descending Boston Center
11:39AM 42.7436 -73.5003 North 379 436 28,700 -1,260 Descending Boston Center
11:40AM 42.8542 -73.4739 10° North 390 449 27,500 -1,020 Descending Boston Center
11:41AM 42.9461 -73.4556 North 385 443 26,800 -840 Descending Boston Center
11:42AM 43.0464 -73.4372 North 380 437 25,900 -900 Descending Boston Center
11:43AM 43.1506 -73.4161 North 369 425 25,100 -900 Descending Boston Center
11:44AM 43.2508 -73.3978 North 369 425 24,200 -600 Descending Boston Center
11:45AM 43.3511 -73.3794 North 369 425 24,000 -900 Descending Boston Center
11:46AM 43.4533 -73.3581 North 369 425 22,500 -1,560 Descending Boston Center
11:47AM 43.5494 -73.3394 North 364 419 20,900 -1,560 Descending Boston Center
11:48AM 43.6411 -73.3381 North 347 399 19,400 -1,500 Descending Boston Center
11:49AM 43.7408 -73.3511 355° North 327 376 17,900 -1,440 Descending Boston Center
11:50AM 43.8222 -73.3639 354° North 327 376 16,600 -1,440 Descending Boston Center
11:51AM 43.9119 -73.3419 10° North 327 376 15,100 -1,620 Descending Boston Center
11:52AM 44.0017 -73.3117 14° North 332 382 13,500 -1,680 Descending Boston Center
11:53AM 44.0917 -73.2842 12° North 332 382 11,800 -1,680 Descending Boston Center
11:54AM 44.1728 -73.2767 North 314 361 10,200 -1,620 Descending Boston Center
11:55AM 44.2583 -73.2864 355° North 302 348 8,600 -1,560 Descending Boston Center
11:56AM 44.3372 -73.2992 353° North 297 342 7,100 -1,500 Descending Boston Center
11:57AM 44.4081 -73.3206 348° North 272 313 5,700 -1,440 Descending Boston Center
11:58AM 44.4744 -73.3450 345° North 249 287 4,300 -1,320 Descending Boston Center
11:59AM 44.5392 -73.3400 North 233 268 3,200 -1,080 Descending Boston Center
12:00PM 44.5500 -73.2789 76° East 181 208 2,200 -780 Descending Boston Center
12:01PM 44.5231 -73.2378 133° Southeast 123 142 1,700 -600 Descending Boston Center
12:02PM 44.5006 -73.1997 130° Southeast 135 155 1,000 -660 Descending Boston Center
12:03PM 44.4758 -73.1617 132° Southeast 135 155 400 -600 Descending Boston Center